sensor_id;sensor_type;location;lat;lon;timestamp;P1;durP1;ratioP1;P2;durP2;ratioP2
63012;SDS011;62113;45.624;11.700;2022-09-09T00:00:23;6.72;;;4.65;;
63012;SDS011;62113;45.624;11.700;2022-09-09T00:02:53;8.82;;;4.93;;
63012;SDS011;62113;45.624;11.700;2022-09-09T00:05:34;7.40;;;4.90;;
63012;SDS011;62113;45.624;11.700;2022-09-09T00:08:27;6.43;;;4.40;;
63012;SDS011;62113;45.624;11.700;2022-09-09T00:11:22;8.32;;;4.70;;
63012;SDS011;62113;45.624;11.700;2022-09-09T00:13:54;6.82;;;5.32;;
63012;SDS011;62113;45.624;11.700;2022-09-09T00:16:24;5.00;;;4.22;;
63012;SDS011;62113;45.624;11.700;2022-09-09T00:19:05;7.97;;;5.00;;
63012;SDS011;62113;45.624;11.700;2022-09-09T00:21:36;7.43;;;4.63;;
63012;SDS011;62113;45.624;11.700;2022-09-09T00:27:09;9.25;;;4.88;;
63012;SDS011;62113;45.624;11.700;2022-09-09T00:32:44;10.05;;;4.72;;
63012;SDS011;62113;45.624;11.700;2022-09-09T00:35:24;10.20;;;4.82;;
63012;SDS011;62113;45.624;11.700;2022-09-09T00:37:55;10.63;;;5.00;;
63012;SDS011;62113;45.624;11.700;2022-09-09T00:40:32;16.75;;;5.18;;
63012;SDS011;62113;45.624;11.700;2022-09-09T00:43:06;9.57;;;4.30;;
63012;SDS011;62113;45.624;11.700;2022-09-09T00:48:58;9.23;;;4.20;;
63012;SDS011;62113;45.624;11.700;2022-09-09T00:51:53;8.32;;;4.10;;
63012;SDS011;62113;45.624;11.700;2022-09-09T00:54:34;7.10;;;4.47;;
63012;SDS011;62113;45.624;11.700;2022-09-09T00:57:29;8.13;;;3.90;;
63012;SDS011;62113;45.624;11.700;2022-09-09T01:11:15;13.45;;;4.07;;
63012;SDS011;62113;45.624;11.700;2022-09-09T01:13:47;9.27;;;3.70;;
63012;SDS011;62113;45.624;11.700;2022-09-09T01:16:18;5.78;;;3.92;;
63012;SDS011;62113;45.624;11.700;2022-09-09T01:18:44;5.53;;;3.50;;
63012;SDS011;62113;45.624;11.700;2022-09-09T01:21:20;4.38;;;3.63;;
63012;SDS011;62113;45.624;11.700;2022-09-09T01:24:15;11.05;;;4.00;;
63012;SDS011;62113;45.624;11.700;2022-09-09T01:26:43;5.57;;;4.03;;
63012;SDS011;62113;45.624;11.700;2022-09-09T01:29:11;6.65;;;4.10;;
63012;SDS011;62113;45.624;11.700;2022-09-09T01:31:51;8.73;;;4.50;;
63012;SDS011;62113;45.624;11.700;2022-09-09T01:34:22;6.97;;;4.13;;
63012;SDS011;62113;45.624;11.700;2022-09-09T01:39:27;9.43;;;4.50;;
63012;SDS011;62113;45.624;11.700;2022-09-09T01:41:53;7.45;;;3.65;;
63012;SDS011;62113;45.624;11.700;2022-09-09T01:44:21;6.90;;;4.18;;
63012;SDS011;62113;45.624;11.700;2022-09-09T01:46:47;7.45;;;4.20;;
63012;SDS011;62113;45.624;11.700;2022-09-09T01:49:13;5.70;;;4.13;;
63012;SDS011;62113;45.624;11.700;2022-09-09T01:51:39;5.07;;;3.88;;
63012;SDS011;62113;45.624;11.700;2022-09-09T01:54:07;7.40;;;3.90;;
63012;SDS011;62113;45.624;11.700;2022-09-09T01:56:43;7.00;;;3.72;;
63012;SDS011;62113;45.624;11.700;2022-09-09T01:59:30;7.47;;;3.97;;
63012;SDS011;62113;45.624;11.700;2022-09-09T02:07:39;6.47;;;3.90;;
63012;SDS011;62113;45.624;11.700;2022-09-09T02:10:20;10.68;;;3.70;;
63012;SDS011;62113;45.624;11.700;2022-09-09T02:12:47;7.80;;;3.88;;
63012;SDS011;62113;45.624;11.700;2022-09-09T02:18:08;7.25;;;3.35;;
63012;SDS011;62113;45.624;11.700;2022-09-09T02:20:38;7.00;;;3.22;;
63012;SDS011;62113;45.624;11.700;2022-09-09T02:23:05;5.28;;;2.90;;
63012;SDS011;62113;45.624;11.700;2022-09-09T02:25:33;6.95;;;2.60;;
63012;SDS011;62113;45.624;11.700;2022-09-09T02:28:02;5.32;;;2.97;;
63012;SDS011;62113;45.624;11.700;2022-09-09T02:30:32;3.28;;;2.22;;
63012;SDS011;62113;45.624;11.700;2022-09-09T02:33:00;4.13;;;2.45;;
63012;SDS011;62113;45.624;11.700;2022-09-09T02:35:31;5.05;;;2.83;;
63012;SDS011;62113;45.624;11.700;2022-09-09T02:38:00;6.40;;;2.70;;
63012;SDS011;62113;45.624;11.700;2022-09-09T02:40:28;7.32;;;2.65;;
63012;SDS011;62113;45.624;11.700;2022-09-09T02:42:54;8.00;;;2.78;;
63012;SDS011;62113;45.624;11.700;2022-09-09T02:45:22;10.63;;;2.85;;
63012;SDS011;62113;45.624;11.700;2022-09-09T02:58:14;6.28;;;3.25;;
63012;SDS011;62113;45.624;11.700;2022-09-09T03:00:43;6.22;;;2.65;;
63012;SDS011;62113;45.624;11.700;2022-09-09T03:03:13;7.95;;;2.20;;
63012;SDS011;62113;45.624;11.700;2022-09-09T03:05:41;6.78;;;2.35;;
63012;SDS011;62113;45.624;11.700;2022-09-09T03:08:07;3.45;;;2.13;;
63012;SDS011;62113;45.624;11.700;2022-09-09T03:10:32;8.20;;;2.30;;
63012;SDS011;62113;45.624;11.700;2022-09-09T03:12:59;7.53;;;2.70;;
63012;SDS011;62113;45.624;11.700;2022-09-09T03:15:25;4.22;;;2.17;;
63012;SDS011;62113;45.624;11.700;2022-09-09T03:17:54;5.97;;;2.60;;
63012;SDS011;62113;45.624;11.700;2022-09-09T03:20:20;6.05;;;2.25;;
63012;SDS011;62113;45.624;11.700;2022-09-09T03:22:46;5.53;;;2.35;;
63012;SDS011;62113;45.624;11.700;2022-09-09T03:25:11;2.67;;;2.20;;
63012;SDS011;62113;45.624;11.700;2022-09-09T03:27:37;5.20;;;2.77;;
63012;SDS011;62113;45.624;11.700;2022-09-09T03:30:02;6.83;;;2.63;;
63012;SDS011;62113;45.624;11.700;2022-09-09T03:32:28;4.82;;;2.58;;
63012;SDS011;62113;45.624;11.700;2022-09-09T03:34:56;9.45;;;2.67;;
63012;SDS011;62113;45.624;11.700;2022-09-09T03:37:22;4.32;;;2.45;;
63012;SDS011;62113;45.624;11.700;2022-09-09T03:39:47;8.38;;;2.65;;
63012;SDS011;62113;45.624;11.700;2022-09-09T03:42:14;5.45;;;2.92;;
63012;SDS011;62113;45.624;11.700;2022-09-09T03:44:43;7.22;;;3.08;;
63012;SDS011;62113;45.624;11.700;2022-09-09T03:47:12;6.95;;;3.03;;
63012;SDS011;62113;45.624;11.700;2022-09-09T03:49:38;9.65;;;2.78;;
63012;SDS011;62113;45.624;11.700;2022-09-09T03:52:03;6.23;;;3.00;;
63012;SDS011;62113;45.624;11.700;2022-09-09T03:54:29;4.33;;;2.73;;
63012;SDS011;62113;45.624;11.700;2022-09-09T03:56:55;8.70;;;3.50;;
63012;SDS011;62113;45.624;11.700;2022-09-09T03:59:20;8.10;;;3.27;;
63012;SDS011;62113;45.624;11.700;2022-09-09T04:01:46;12.50;;;2.83;;
63012;SDS011;62113;45.624;11.700;2022-09-09T04:04:12;8.85;;;3.42;;
63012;SDS011;62113;45.624;11.700;2022-09-09T04:06:38;12.27;;;4.20;;
63012;SDS011;62113;45.624;11.700;2022-09-09T04:09:03;7.67;;;3.83;;
63012;SDS011;62113;45.624;11.700;2022-09-09T04:11:29;10.23;;;3.90;;
63012;SDS011;62113;45.624;11.700;2022-09-09T04:13:55;8.10;;;3.88;;
63012;SDS011;62113;45.624;11.700;2022-09-09T04:16:20;7.53;;;3.80;;
63012;SDS011;62113;45.624;11.700;2022-09-09T04:18:46;9.50;;;4.23;;
63012;SDS011;62113;45.624;11.700;2022-09-09T04:21:12;8.00;;;4.30;;
63012;SDS011;62113;45.624;11.700;2022-09-09T04:23:38;17.75;;;5.40;;
63012;SDS011;62113;45.624;11.700;2022-09-09T04:26:03;9.97;;;5.00;;
63012;SDS011;62113;45.624;11.700;2022-09-09T04:31:03;10.85;;;4.97;;
63012;SDS011;62113;45.624;11.700;2022-09-09T04:33:30;10.70;;;5.00;;
63012;SDS011;62113;45.624;11.700;2022-09-09T04:35:56;9.90;;;4.88;;
63012;SDS011;62113;45.624;11.700;2022-09-09T04:38:22;13.40;;;5.20;;
63012;SDS011;62113;45.624;11.700;2022-09-09T04:40:48;19.60;;;4.10;;
63012;SDS011;62113;45.624;11.700;2022-09-09T04:43:16;8.98;;;3.92;;
63012;SDS011;62113;45.624;11.700;2022-09-09T04:48:08;9.50;;;4.72;;
63012;SDS011;62113;45.624;11.700;2022-09-09T04:50:37;12.65;;;3.55;;
63012;SDS011;62113;45.624;11.700;2022-09-09T04:53:03;14.83;;;4.37;;
63012;SDS011;62113;45.624;11.700;2022-09-09T04:55:32;9.70;;;3.85;;
63012;SDS011;62113;45.624;11.700;2022-09-09T04:58:03;12.52;;;4.13;;
63012;SDS011;62113;45.624;11.700;2022-09-09T05:00:30;9.15;;;3.95;;
63012;SDS011;62113;45.624;11.700;2022-09-09T05:02:56;9.70;;;4.10;;
63012;SDS011;62113;45.624;11.700;2022-09-09T05:05:21;11.47;;;4.40;;
63012;SDS011;62113;45.624;11.700;2022-09-09T05:07:47;15.75;;;5.00;;
63012;SDS011;62113;45.624;11.700;2022-09-09T05:10:13;10.20;;;5.97;;
63012;SDS011;62113;45.624;11.700;2022-09-09T05:12:40;11.27;;;6.28;;
63012;SDS011;62113;45.624;11.700;2022-09-09T05:15:05;15.43;;;6.40;;
63012;SDS011;62113;45.624;11.700;2022-09-09T05:17:32;13.07;;;5.65;;
63012;SDS011;62113;45.624;11.700;2022-09-09T05:19:58;9.95;;;5.80;;
63012;SDS011;62113;45.624;11.700;2022-09-09T05:22:24;11.77;;;6.00;;
63012;SDS011;62113;45.624;11.700;2022-09-09T05:24:50;17.10;;;6.20;;
63012;SDS011;62113;45.624;11.700;2022-09-09T05:27:16;15.50;;;6.15;;
63012;SDS011;62113;45.624;11.700;2022-09-09T05:29:44;10.25;;;6.10;;
63012;SDS011;62113;45.624;11.700;2022-09-09T05:32:10;12.40;;;5.53;;
63012;SDS011;62113;45.624;11.700;2022-09-09T05:34:36;13.00;;;5.57;;
63012;SDS011;62113;45.624;11.700;2022-09-09T05:37:02;10.27;;;5.65;;
63012;SDS011;62113;45.624;11.700;2022-09-09T05:39:29;11.68;;;5.50;;
63012;SDS011;62113;45.624;11.700;2022-09-09T05:41:55;11.75;;;6.22;;
63012;SDS011;62113;45.624;11.700;2022-09-09T05:44:20;11.27;;;4.97;;
63012;SDS011;62113;45.624;11.700;2022-09-09T05:46:48;9.23;;;5.38;;
63012;SDS011;62113;45.624;11.700;2022-09-09T05:49:14;13.07;;;4.70;;
63012;SDS011;62113;45.624;11.700;2022-09-09T05:51:40;10.40;;;4.55;;
63012;SDS011;62113;45.624;11.700;2022-09-09T05:54:08;7.82;;;4.93;;
63012;SDS011;62113;45.624;11.700;2022-09-09T05:56:34;14.60;;;4.82;;
63012;SDS011;62113;45.624;11.700;2022-09-09T05:59:00;7.40;;;4.73;;
63012;SDS011;62113;45.624;11.700;2022-09-09T06:01:27;12.40;;;4.93;;
63012;SDS011;62113;45.624;11.700;2022-09-09T06:03:55;12.18;;;5.00;;
63012;SDS011;62113;45.624;11.700;2022-09-09T06:06:22;9.40;;;5.25;;
63012;SDS011;62113;45.624;11.700;2022-09-09T06:08:52;8.23;;;4.57;;
63012;SDS011;62113;45.624;11.700;2022-09-09T06:13:46;7.78;;;3.85;;
63012;SDS011;62113;45.624;11.700;2022-09-09T06:16:17;12.43;;;3.53;;
63012;SDS011;62113;45.624;11.700;2022-09-09T06:18:43;4.38;;;2.90;;
63012;SDS011;62113;45.624;11.700;2022-09-09T06:21:16;5.75;;;3.25;;
63012;SDS011;62113;45.624;11.700;2022-09-09T06:23:43;6.57;;;2.45;;
63012;SDS011;62113;45.624;11.700;2022-09-09T06:26:19;7.63;;;3.25;;
63012;SDS011;62113;45.624;11.700;2022-09-09T06:28:48;7.28;;;2.50;;
63012;SDS011;62113;45.624;11.700;2022-09-09T06:31:15;6.75;;;3.13;;
63012;SDS011;62113;45.624;11.700;2022-09-09T06:33:51;11.50;;;6.78;;
63012;SDS011;62113;45.624;11.700;2022-09-09T06:36:22;8.10;;;3.60;;
63012;SDS011;62113;45.624;11.700;2022-09-09T06:38:49;5.57;;;3.05;;
63012;SDS011;62113;45.624;11.700;2022-09-09T06:41:16;13.05;;;4.65;;
63012;SDS011;62113;45.624;11.700;2022-09-09T06:43:43;6.50;;;3.05;;
63012;SDS011;62113;45.624;11.700;2022-09-09T06:46:19;6.97;;;3.10;;
63012;SDS011;62113;45.624;11.700;2022-09-09T06:48:47;9.77;;;3.05;;
63012;SDS011;62113;45.624;11.700;2022-09-09T06:53:41;6.80;;;2.63;;
63012;SDS011;62113;45.624;11.700;2022-09-09T06:58:36;7.82;;;2.55;;
63012;SDS011;62113;45.624;11.700;2022-09-09T07:01:09;8.32;;;2.50;;
63012;SDS011;62113;45.624;11.700;2022-09-09T07:03:37;8.48;;;2.53;;
63012;SDS011;62113;45.624;11.700;2022-09-09T07:06:04;5.63;;;2.55;;
63012;SDS011;62113;45.624;11.700;2022-09-09T07:08:31;6.55;;;2.55;;
63012;SDS011;62113;45.624;11.700;2022-09-09T07:11:06;26.88;;;2.83;;
63012;SDS011;62113;45.624;11.700;2022-09-09T07:13:33;6.82;;;2.35;;
63012;SDS011;62113;45.624;11.700;2022-09-09T07:16:06;6.43;;;2.38;;
63012;SDS011;62113;45.624;11.700;2022-09-09T07:18:33;11.05;;;2.63;;
63012;SDS011;62113;45.624;11.700;2022-09-09T07:20:59;8.63;;;2.47;;
63012;SDS011;62113;45.624;11.700;2022-09-09T07:23:27;7.25;;;2.90;;
63012;SDS011;62113;45.624;11.700;2022-09-09T07:25:53;8.57;;;3.05;;
63012;SDS011;62113;45.624;11.700;2022-09-09T07:28:21;10.05;;;2.58;;
63012;SDS011;62113;45.624;11.700;2022-09-09T07:30:54;5.93;;;2.45;;
63012;SDS011;62113;45.624;11.700;2022-09-09T07:33:21;6.75;;;2.42;;
63012;SDS011;62113;45.624;11.700;2022-09-09T07:35:47;6.28;;;2.30;;
63012;SDS011;62113;45.624;11.700;2022-09-09T07:38:12;8.75;;;2.20;;
63012;SDS011;62113;45.624;11.700;2022-09-09T07:40:39;5.95;;;2.08;;
63012;SDS011;62113;45.624;11.700;2022-09-09T07:43:05;7.17;;;2.50;;
63012;SDS011;62113;45.624;11.700;2022-09-09T07:45:31;7.95;;;2.40;;
63012;SDS011;62113;45.624;11.700;2022-09-09T07:47:58;4.55;;;1.88;;
63012;SDS011;62113;45.624;11.700;2022-09-09T07:50:24;6.20;;;2.22;;
63012;SDS011;62113;45.624;11.700;2022-09-09T07:52:50;6.97;;;2.65;;
63012;SDS011;62113;45.624;11.700;2022-09-09T07:55:16;5.05;;;2.30;;
63012;SDS011;62113;45.624;11.700;2022-09-09T07:57:42;10.05;;;2.47;;
63012;SDS011;62113;45.624;11.700;2022-09-09T08:00:08;5.00;;;2.00;;
63012;SDS011;62113;45.624;11.700;2022-09-09T08:02:36;30.48;;;21.58;;
63012;SDS011;62113;45.624;11.700;2022-09-09T08:05:02;12.00;;;8.07;;
63012;SDS011;62113;45.624;11.700;2022-09-09T08:07:28;5.80;;;3.03;;
63012;SDS011;62113;45.624;11.700;2022-09-09T08:09:54;4.97;;;2.90;;
63012;SDS011;62113;45.624;11.700;2022-09-09T08:12:20;3.08;;;1.95;;
63012;SDS011;62113;45.624;11.700;2022-09-09T08:14:46;5.00;;;2.38;;
63012;SDS011;62113;45.624;11.700;2022-09-09T08:17:13;8.48;;;2.15;;
63012;SDS011;62113;45.624;11.700;2022-09-09T08:19:39;4.78;;;2.42;;
63012;SDS011;62113;45.624;11.700;2022-09-09T08:22:05;3.75;;;2.25;;
63012;SDS011;62113;45.624;11.700;2022-09-09T08:24:30;2.53;;;2.10;;
63012;SDS011;62113;45.624;11.700;2022-09-09T08:26:56;8.65;;;2.78;;
63012;SDS011;62113;45.624;11.700;2022-09-09T08:34:16;11.13;;;2.83;;
63012;SDS011;62113;45.624;11.700;2022-09-09T08:36:45;7.63;;;2.63;;
63012;SDS011;62113;45.624;11.700;2022-09-09T08:39:13;7.10;;;2.47;;
63012;SDS011;62113;45.624;11.700;2022-09-09T08:53:16;7.57;;;2.40;;
63012;SDS011;62113;45.624;11.700;2022-09-09T08:58:15;3.50;;;2.10;;
63012;SDS011;62113;45.624;11.700;2022-09-09T09:06:45;5.93;;;2.90;;
63012;SDS011;62113;45.624;11.700;2022-09-09T09:09:51;4.47;;;2.38;;
63012;SDS011;62113;45.624;11.700;2022-09-09T09:12:28;5.88;;;2.75;;
63012;SDS011;62113;45.624;11.700;2022-09-09T09:14:58;4.15;;;2.15;;
63012;SDS011;62113;45.624;11.700;2022-09-09T09:17:25;2.90;;;2.30;;
63012;SDS011;62113;45.624;11.700;2022-09-09T09:19:56;12.95;;;2.88;;
63012;SDS011;62113;45.624;11.700;2022-09-09T09:22:32;9.25;;;2.90;;
63012;SDS011;62113;45.624;11.700;2022-09-09T09:30:24;6.53;;;2.33;;
63012;SDS011;62113;45.624;11.700;2022-09-09T09:35:23;6.82;;;2.40;;
63012;SDS011;62113;45.624;11.700;2022-09-09T09:37:49;6.88;;;2.17;;
63012;SDS011;62113;45.624;11.700;2022-09-09T09:40:17;4.13;;;2.20;;
63012;SDS011;62113;45.624;11.700;2022-09-09T09:42:51;7.85;;;2.63;;
63012;SDS011;62113;45.624;11.700;2022-09-09T09:45:29;5.18;;;2.33;;
63012;SDS011;62113;45.624;11.700;2022-09-09T09:48:00;12.82;;;2.35;;
63012;SDS011;62113;45.624;11.700;2022-09-09T09:50:28;6.13;;;2.45;;
63012;SDS011;62113;45.624;11.700;2022-09-09T09:52:55;6.78;;;2.45;;
63012;SDS011;62113;45.624;11.700;2022-09-09T09:55:22;11.43;;;2.45;;
63012;SDS011;62113;45.624;11.700;2022-09-09T09:57:49;8.00;;;2.25;;
63012;SDS011;62113;45.624;11.700;2022-09-09T10:00:16;6.30;;;1.98;;
63012;SDS011;62113;45.624;11.700;2022-09-09T10:02:44;5.72;;;1.92;;
63012;SDS011;62113;45.624;11.700;2022-09-09T10:05:24;4.72;;;2.58;;
63012;SDS011;62113;45.624;11.700;2022-09-09T10:08:00;8.35;;;2.28;;
63012;SDS011;62113;45.624;11.700;2022-09-09T10:10:32;8.70;;;2.13;;
63012;SDS011;62113;45.624;11.700;2022-09-09T10:13:05;4.70;;;2.17;;
63012;SDS011;62113;45.624;11.700;2022-09-09T10:15:51;4.10;;;2.00;;
63012;SDS011;62113;45.624;11.700;2022-09-09T10:18:39;4.40;;;1.70;;
63012;SDS011;62113;45.624;11.700;2022-09-09T10:27:05;2.08;;;1.25;;
63012;SDS011;62113;45.624;11.700;2022-09-09T10:47:29;1.70;;;1.60;;
63012;SDS011;62113;45.624;11.700;2022-09-09T10:50:28;2.53;;;1.30;;
63012;SDS011;62113;45.624;11.700;2022-09-09T10:53:24;4.78;;;1.65;;
63012;SDS011;62113;45.624;11.700;2022-09-09T10:56:14;2.80;;;1.55;;
63012;SDS011;62113;45.624;11.700;2022-09-09T10:58:42;2.45;;;1.52;;
63012;SDS011;62113;45.624;11.700;2022-09-09T11:01:27;1.73;;;1.50;;
63012;SDS011;62113;45.624;11.700;2022-09-09T11:04:22;6.78;;;1.40;;
63012;SDS011;62113;45.624;11.700;2022-09-09T11:06:55;3.05;;;1.60;;
63012;SDS011;62113;45.624;11.700;2022-09-09T11:09:25;3.00;;;1.48;;
63012;SDS011;62113;45.624;11.700;2022-09-09T11:11:56;4.68;;;1.60;;
63012;SDS011;62113;45.624;11.700;2022-09-09T11:14:27;1.80;;;1.30;;
63012;SDS011;62113;45.624;11.700;2022-09-09T11:19:43;3.78;;;1.55;;
63012;SDS011;62113;45.624;11.700;2022-09-09T11:25:13;5.78;;;1.60;;
63012;SDS011;62113;45.624;11.700;2022-09-09T11:38:45;5.70;;;2.35;;
63012;SDS011;62113;45.624;11.700;2022-09-09T11:41:12;5.95;;;2.00;;
63012;SDS011;62113;45.624;11.700;2022-09-09T11:43:44;7.05;;;2.72;;
63012;SDS011;62113;45.624;11.700;2022-09-09T11:46:12;2.47;;;1.70;;
63012;SDS011;62113;45.624;11.700;2022-09-09T11:48:45;3.90;;;2.13;;
63012;SDS011;62113;45.624;11.700;2022-09-09T11:51:29;3.80;;;1.98;;
63012;SDS011;62113;45.624;11.700;2022-09-09T11:53:59;5.97;;;2.15;;
63012;SDS011;62113;45.624;11.700;2022-09-09T11:59:04;5.35;;;2.35;;
63012;SDS011;62113;45.624;11.700;2022-09-09T12:06:53;5.03;;;2.10;;
63012;SDS011;62113;45.624;11.700;2022-09-09T12:11:50;5.38;;;2.30;;
63012;SDS011;62113;45.624;11.700;2022-09-09T12:14:35;4.63;;;2.30;;
63012;SDS011;62113;45.624;11.700;2022-09-09T12:17:21;9.25;;;2.50;;
63012;SDS011;62113;45.624;11.700;2022-09-09T12:19:48;7.45;;;2.40;;
63012;SDS011;62113;45.624;11.700;2022-09-09T12:31:10;5.10;;;2.10;;
63012;SDS011;62113;45.624;11.700;2022-09-09T12:33:47;5.80;;;2.25;;
63012;SDS011;62113;45.624;11.700;2022-09-09T12:36:31;5.95;;;2.33;;
63012;SDS011;62113;45.624;11.700;2022-09-09T12:38:59;7.18;;;1.77;;
63012;SDS011;62113;45.624;11.700;2022-09-09T12:41:40;7.75;;;1.77;;
63012;SDS011;62113;45.624;11.700;2022-09-09T12:44:06;6.17;;;2.10;;
63012;SDS011;62113;45.624;11.700;2022-09-09T12:46:41;3.30;;;1.20;;
63012;SDS011;62113;45.624;11.700;2022-09-09T12:52:12;1.55;;;0.90;;
63012;SDS011;62113;45.624;11.700;2022-09-09T12:54:42;1.17;;;1.08;;
63012;SDS011;62113;45.624;11.700;2022-09-09T12:57:11;2.53;;;0.90;;
63012;SDS011;62113;45.624;11.700;2022-09-09T12:59:42;3.22;;;1.20;;
63012;SDS011;62113;45.624;11.700;2022-09-09T13:02:26;2.00;;;1.38;;
63012;SDS011;62113;45.624;11.700;2022-09-09T13:04:53;0.90;;;0.88;;
63012;SDS011;62113;45.624;11.700;2022-09-09T13:07:20;1.65;;;1.10;;
63012;SDS011;62113;45.624;11.700;2022-09-09T13:09:47;3.58;;;1.50;;
63012;SDS011;62113;45.624;11.700;2022-09-09T13:12:15;2.30;;;1.33;;
63012;SDS011;62113;45.624;11.700;2022-09-09T13:14:44;1.15;;;1.00;;
63012;SDS011;62113;45.624;11.700;2022-09-09T13:17:20;2.25;;;1.20;;
63012;SDS011;62113;45.624;11.700;2022-09-09T13:19:51;3.05;;;1.00;;
63012;SDS011;62113;45.624;11.700;2022-09-09T13:22:36;2.05;;;1.20;;
63012;SDS011;62113;45.624;11.700;2022-09-09T13:27:39;1.48;;;0.88;;
63012;SDS011;62113;45.624;11.700;2022-09-09T13:35:46;2.83;;;1.08;;
63012;SDS011;62113;45.624;11.700;2022-09-09T13:38:14;1.45;;;0.80;;
63012;SDS011;62113;45.624;11.700;2022-09-09T13:40:40;1.63;;;0.98;;
63012;SDS011;62113;45.624;11.700;2022-09-09T13:43:18;3.80;;;2.20;;
63012;SDS011;62113;45.624;11.700;2022-09-09T13:45:54;2.70;;;1.50;;
63012;SDS011;62113;45.624;11.700;2022-09-09T13:48:21;1.30;;;1.20;;
63012;SDS011;62113;45.624;11.700;2022-09-09T13:51:01;4.40;;;1.15;;
63012;SDS011;62113;45.624;11.700;2022-09-09T13:53:30;2.20;;;1.30;;
63012;SDS011;62113;45.624;11.700;2022-09-09T13:55:56;3.10;;;1.23;;
63012;SDS011;62113;45.624;11.700;2022-09-09T13:58:23;2.78;;;1.38;;
63012;SDS011;62113;45.624;11.700;2022-09-09T14:00:50;3.08;;;1.35;;
63012;SDS011;62113;45.624;11.700;2022-09-09T14:03:16;1.52;;;1.05;;
63012;SDS011;62113;45.624;11.700;2022-09-09T14:05:42;4.03;;;1.10;;
63012;SDS011;62113;45.624;11.700;2022-09-09T14:08:10;5.40;;;1.23;;
63012;SDS011;62113;45.624;11.700;2022-09-09T14:10:47;1.25;;;1.15;;
63012;SDS011;62113;45.624;11.700;2022-09-09T14:13:13;2.03;;;0.98;;
63012;SDS011;62113;45.624;11.700;2022-09-09T14:15:39;2.28;;;1.15;;
63012;SDS011;62113;45.624;11.700;2022-09-09T14:18:05;3.37;;;0.80;;
63012;SDS011;62113;45.624;11.700;2022-09-09T14:20:30;1.73;;;1.00;;
63012;SDS011;62113;45.624;11.700;2022-09-09T14:22:56;5.00;;;1.10;;
63012;SDS011;62113;45.624;11.700;2022-09-09T14:27:48;3.00;;;1.25;;
63012;SDS011;62113;45.624;11.700;2022-09-09T14:30:16;4.07;;;1.17;;
63012;SDS011;62113;45.624;11.700;2022-09-09T14:32:41;1.30;;;1.15;;
63012;SDS011;62113;45.624;11.700;2022-09-09T14:35:07;3.43;;;1.17;;
63012;SDS011;62113;45.624;11.700;2022-09-09T14:37:33;1.55;;;1.20;;
63012;SDS011;62113;45.624;11.700;2022-09-09T14:39:59;2.70;;;1.05;;
63012;SDS011;62113;45.624;11.700;2022-09-09T14:42:24;1.57;;;1.23;;
63012;SDS011;62113;45.624;11.700;2022-09-09T14:44:51;1.20;;;1.20;;
63012;SDS011;62113;45.624;11.700;2022-09-09T14:47:17;4.03;;;1.13;;
63012;SDS011;62113;45.624;11.700;2022-09-09T14:49:42;2.07;;;1.00;;
63012;SDS011;62113;45.624;11.700;2022-09-09T14:52:08;1.80;;;1.40;;
63012;SDS011;62113;45.624;11.700;2022-09-09T14:54:34;1.20;;;1.10;;
63012;SDS011;62113;45.624;11.700;2022-09-09T14:56:59;1.77;;;1.30;;
63012;SDS011;62113;45.624;11.700;2022-09-09T14:59:25;2.20;;;0.97;;
63012;SDS011;62113;45.624;11.700;2022-09-09T15:04:17;1.48;;;1.35;;
63012;SDS011;62113;45.624;11.700;2022-09-09T15:06:44;3.17;;;1.20;;
63012;SDS011;62113;45.624;11.700;2022-09-09T15:09:13;3.78;;;1.45;;
63012;SDS011;62113;45.624;11.700;2022-09-09T15:11:39;2.83;;;1.20;;
63012;SDS011;62113;45.624;11.700;2022-09-09T15:14:06;2.95;;;1.63;;
63012;SDS011;62113;45.624;11.700;2022-09-09T15:16:32;2.40;;;1.30;;
63012;SDS011;62113;45.624;11.700;2022-09-09T15:18:59;1.40;;;1.30;;
63012;SDS011;62113;45.624;11.700;2022-09-09T15:21:27;1.40;;;1.30;;
63012;SDS011;62113;45.624;11.700;2022-09-09T15:23:54;1.90;;;1.30;;
63012;SDS011;62113;45.624;11.700;2022-09-09T15:26:21;2.38;;;1.27;;
63012;SDS011;62113;45.624;11.700;2022-09-09T15:28:47;1.90;;;1.08;;
63012;SDS011;62113;45.624;11.700;2022-09-09T15:31:22;6.93;;;1.42;;
63012;SDS011;62113;45.624;11.700;2022-09-09T15:36:18;4.33;;;1.60;;
63012;SDS011;62113;45.624;11.700;2022-09-09T15:38:45;2.75;;;1.80;;
63012;SDS011;62113;45.624;11.700;2022-09-09T15:41:11;2.35;;;1.30;;
63012;SDS011;62113;45.624;11.700;2022-09-09T15:43:38;2.97;;;1.20;;
63012;SDS011;62113;45.624;11.700;2022-09-09T15:46:48;2.60;;;1.45;;
63012;SDS011;62113;45.624;11.700;2022-09-09T15:51:34;1.30;;;1.20;;
63012;SDS011;62113;45.624;11.700;2022-09-09T15:54:00;4.60;;;1.38;;
63012;SDS011;62113;45.624;11.700;2022-09-09T15:56:26;3.70;;;1.40;;
63012;SDS011;62113;45.624;11.700;2022-09-09T15:58:55;4.60;;;1.50;;
63012;SDS011;62113;45.624;11.700;2022-09-09T16:01:22;1.60;;;1.50;;
63012;SDS011;62113;45.624;11.700;2022-09-09T16:03:48;3.03;;;1.35;;
63012;SDS011;62113;45.624;11.700;2022-09-09T16:06:20;1.98;;;1.30;;
63012;SDS011;62113;45.624;11.700;2022-09-09T16:08:48;1.88;;;1.55;;
63012;SDS011;62113;45.624;11.700;2022-09-09T16:11:22;2.08;;;1.15;;
63012;SDS011;62113;45.624;11.700;2022-09-09T16:13:49;5.55;;;1.60;;
63012;SDS011;62113;45.624;11.700;2022-09-09T16:16:17;2.17;;;1.58;;
63012;SDS011;62113;45.624;11.700;2022-09-09T16:18:50;3.35;;;1.48;;
63012;SDS011;62113;45.624;11.700;2022-09-09T16:23:50;1.30;;;1.20;;
63012;SDS011;62113;45.624;11.700;2022-09-09T16:26:18;1.35;;;1.20;;
63012;SDS011;62113;45.624;11.700;2022-09-09T16:31:14;2.83;;;1.83;;
63012;SDS011;62113;45.624;11.700;2022-09-09T16:33:42;3.03;;;1.65;;
63012;SDS011;62113;45.624;11.700;2022-09-09T16:36:09;3.42;;;1.40;;
63012;SDS011;62113;45.624;11.700;2022-09-09T16:38:39;1.95;;;1.55;;
63012;SDS011;62113;45.624;11.700;2022-09-09T16:41:05;4.53;;;1.40;;
63012;SDS011;62113;45.624;11.700;2022-09-09T16:43:33;6.45;;;1.60;;
63012;SDS011;62113;45.624;11.700;2022-09-09T16:46:00;4.45;;;1.55;;
63012;SDS011;62113;45.624;11.700;2022-09-09T16:48:30;3.72;;;1.70;;
63012;SDS011;62113;45.624;11.700;2022-09-09T16:51:01;5.55;;;1.95;;
63012;SDS011;62113;45.624;11.700;2022-09-09T16:53:30;3.05;;;1.40;;
63012;SDS011;62113;45.624;11.700;2022-09-09T16:55:56;1.52;;;1.50;;
63012;SDS011;62113;45.624;11.700;2022-09-09T16:58:22;8.40;;;1.60;;
63012;SDS011;62113;45.624;11.700;2022-09-09T17:00:48;3.37;;;1.67;;
63012;SDS011;62113;45.624;11.700;2022-09-09T17:03:13;6.80;;;1.85;;
63012;SDS011;62113;45.624;11.700;2022-09-09T17:05:40;4.05;;;2.40;;
63012;SDS011;62113;45.624;11.700;2022-09-09T17:08:06;4.88;;;2.15;;
63012;SDS011;62113;45.624;11.700;2022-09-09T17:10:32;5.35;;;1.95;;
63012;SDS011;62113;45.624;11.700;2022-09-09T17:12:57;3.27;;;1.90;;
63012;SDS011;62113;45.624;11.700;2022-09-09T17:15:23;2.53;;;1.80;;
63012;SDS011;62113;45.624;11.700;2022-09-09T17:17:48;4.47;;;2.10;;
63012;SDS011;62113;45.624;11.700;2022-09-09T17:20:17;3.80;;;2.00;;
63012;SDS011;62113;45.624;11.700;2022-09-09T17:22:43;7.80;;;1.70;;
63012;SDS011;62113;45.624;11.700;2022-09-09T17:25:10;7.30;;;2.00;;
63012;SDS011;62113;45.624;11.700;2022-09-09T17:27:36;2.13;;;1.60;;
63012;SDS011;62113;45.624;11.700;2022-09-09T17:30:02;6.53;;;2.03;;
63012;SDS011;62113;45.624;11.700;2022-09-09T17:34:55;3.55;;;1.77;;
63012;SDS011;62113;45.624;11.700;2022-09-09T17:37:20;3.43;;;1.80;;
63012;SDS011;62113;45.624;11.700;2022-09-09T17:39:46;4.87;;;1.90;;
63012;SDS011;62113;45.624;11.700;2022-09-09T17:42:12;7.80;;;1.97;;